sim
Sign-in with your pilot id or email,
or register
Callsign
Passwort

Schedule Details

Flight Number: DLH2251
Departure: Lyon Saint Exupery Airport (LFLL) at 15:50
Arrival: Munich Airport (EDDM) at 17:10
Route: Lufthansa Passenger Schedule. Enter filed route here before submitting Pirep.

Weather Information
Getting current METAR information for LFLL 190230Z 13007KT 9999 -RA FEW096TCU BKN100 21/17 Q1017 NOSIG
Getting current METAR information for EDDM 190220Z VRB02KT CAVOK 05/03 Q1021 NOSIG

Schedule Frequency

Route Map